Latest Weather Observations for Kununurra Airport

IDD60801

Issued at 2:21 pm CST Monday 23 September 2019 (issued every 10 minutes, with the page automatically refreshed every 10 minutes)

About weather observations | Map of weather stations | Latest weather observations for NT | Other Formats
Station Details ID: 002056 Name: KUNUNURRA AERO Lat: -15.78 Lon: 128.71 Height: 44.0 m
Data from the previous 72 hours. | See also: Recent months at Kununurra Airport
Date/Time
CST
Temp
°C
App
Temp
°C
Dew
Point
°C
Rel
Hum
%
Delta-T
°C
Wind Press
QNH
hPa
Press
MSL
hPa
Rain since
9am
mm
Dir  Spd
km/h
Gust
km/h
Spd
kts
Gust
kts
23/02:00pm 34.5 33.6 15.9 33 11.7 NNE 15 28 8 15 1014.3 1014.1 0.0
23/01:30pm 33.9 33.0 15.8 33 11.4 NNE 15 26 8 14 1014.9 1014.7 0.0
23/01:00pm 33.8 33.2 16.6 35 10.9 NNW 15 24 8 13 1015.5 1015.3 0.0
23/12:30pm 34.8 33.8 16.6 33 11.6 N 17 30 9 16 1016.1 1015.9 0.0
23/12:00pm 32.8 33.1 17.8 40 9.7 NE 13 17 7 9 1016.7 1016.5 0.0
23/11:30am 32.8 32.7 17.8 40 9.6 N 15 22 8 12 1017.1 1016.9 0.0
23/11:00am 31.6 31.9 17.1 41 9.2 N 11 20 6 11 1017.5 1017.3 0.0
23/10:30am 31.7 32.3 17.6 43 9.0 ENE 11 19 6 10 1018.0 1017.8 0.0
23/10:00am 30.7 33.1 19.7 52 7.2 ENE 6 9 3 5 1018.1 1017.9 0.0
23/09:30am 28.6 30.7 20.1 60 5.6 ENE 9 13 5 7 1018.2 1018.0 0.0
23/09:00am 27.8 30.0 19.6 61 5.3 NNE 7 11 4 6 1018.1 1017.9 0.0
23/08:30am 27.5 29.7 19.6 62 5.1 NNE 7 13 4 7 1017.8 1017.6 0.0
23/08:00am 26.4 29.0 18.5 62 5.0 SW 2 7 1 4 1017.5 1017.3 0.0
23/07:30am 23.4 26.0 17.6 70 3.6 CALM 0 0 0 0 1017.0 1016.8 0.0
23/07:00am 22.3 24.8 18.1 77 2.6 E 2 7 1 4 1016.7 1016.5 0.0
23/06:30am 22.7 25.2 17.2 71 3.4 CALM 0 0 0 0 1016.0 1015.8 0.0
23/06:00am 24.1 26.7 18.3 70 3.7 S 2 9 1 5 1015.7 1015.5 0.0
23/05:30am 24.3 25.1 17.3 65 4.3 WSW 9 11 5 6 1015.2 1015.0 0.0
23/05:00am 25.4 26.1 17.1 60 5.2 NNE 9 13 5 7 1014.9 1014.7 0.0
23/04:30am 24.6 24.4 16.6 61 4.9 ENE 13 19 7 10 1014.9 1014.7 0.0
23/04:00am 23.4 24.2 16.4 64 4.3 NNE 7 15 4 8 1014.0 1013.8 0.0
23/03:30am 23.8 24.7 16.1 62 4.7 NNW 6 9 3 5 1013.8 1013.6 0.0
23/03:00am 23.8 26.1 16.8 65 4.3 CALM 0 0 0 0 1013.9 1013.7 0.0
23/02:30am 24.8 27.0 16.5 60 5.1 CALM 0 0 0 0 1014.0 1013.8 0.0
23/02:00am 25.5 28.0 17.2 60 5.2 CALM 0 0 0 0 1014.2 1014.0 0.0
23/01:30am 26.0 28.2 16.5 55 5.9 CALM 0 0 0 0 1014.5 1014.3 0.0
23/01:00am 26.5 28.7 16.4 53 6.2 CALM 0 0 0 0 1014.9 1014.7 0.0
23/12:30am 27.2 29.3 16.2 51 6.8 CALM 0 0 0 0 1015.3 1015.1 0.0
23/12:00am 27.0 29.2 16.6 53 6.5 CALM 0 0 0 0 1015.4 1015.2 0.0
 
Date/Time
CST
Temp
°C
App
Temp
°C
Dew
Point
°C
Rel
Hum
%
Delta-T
°C
Wind Press
QNH
hPa
Press
MSL
hPa
Rain since
9am
mm
Dir  Spd
km/h
Gust
km/h
Spd
kts
Gust
kts
22/11:30pm 28.1 30.1 16.1 48 7.4 CALM 0 0 0 0 1015.3 1015.1 0.0
22/11:00pm 28.0 29.4 16.3 49 7.3 W 4 7 2 4 1015.4 1015.2 0.0
22/10:30pm 27.8 28.1 16.1 49 7.2 NNE 9 11 5 6 1015.6 1015.4 0.0
22/10:00pm 29.1 30.0 16.0 45 8.1 N 6 7 3 4 1015.4 1015.2 0.0
22/09:30pm 29.7 29.5 15.8 43 8.6 N 11 15 6 8 1015.5 1015.3 0.0
22/09:00pm 29.7 28.6 15.4 42 8.8 N 15 19 8 10 1015.1 1014.9 0.0
22/08:30pm 29.4 28.2 14.0 39 9.3 N 13 17 7 9 1014.6 1014.4 0.0
22/08:00pm 30.6 29.6 13.4 35 10.3 NNW 11 15 6 8 1014.3 1014.1 0.0
22/07:30pm 31.2 30.4 13.9 35 10.5 NNW 11 13 6 7 1014.0 1013.8 0.0
22/07:00pm 31.9 31.3 13.6 32 11.1 N 9 11 5 6 1013.6 1013.4 0.0
22/06:30pm 33.5 32.7 13.0 29 12.3 N 9 13 5 7 1013.2 1013.0 0.0
22/06:00pm 34.5 32.9 11.6 25 13.6 NNW 11 17 6 9 1013.0 1012.8 0.0
22/05:30pm 34.7 32.8 11.8 25 13.6 N 13 19 7 10 1012.7 1012.5 0.0
22/05:00pm 35.5 34.4 11.8 24 14.1 N 9 15 5 8 1012.6 1012.4 0.0
22/04:30pm 35.0 33.5 12.0 25 13.7 N 11 20 6 11 1012.8 1012.6 0.0
22/04:00pm 34.9 32.3 12.0 25 13.7 NE 17 24 9 13 1012.9 1012.7 0.0
22/03:30pm 35.1 33.3 13.3 27 13.3 NNE 15 24 8 13 1013.0 1012.8 0.0
22/03:00pm 34.7 33.3 13.5 28 12.9 NE 13 24 7 13 1013.4 1013.2 0.0
22/02:30pm 34.2 32.7 13.1 28 12.8 ENE 13 20 7 11 1013.8 1013.6 0.0
22/02:00pm 34.2 31.9 13.1 28 12.8 NE 17 28 9 15 1014.2 1014.0 0.0
22/01:30pm 34.0 31.7 12.9 28 12.7 N 17 28 9 15 1014.8 1014.6 0.0
22/01:00pm 33.8 32.9 12.7 27 12.7 NNE 9 13 5 7 1015.4 1015.2 0.0
22/12:30pm 33.6 32.1 13.1 29 12.4 NE 13 22 7 12 1015.9 1015.7 0.0
22/12:00pm 31.9 31.3 14.5 34 10.7 NE 11 20 6 11 1016.6 1016.4 0.0
22/11:30am 31.1 31.3 16.7 42 9.1 NNW 11 15 6 8 1017.0 1016.8 0.0
22/11:00am 30.0 30.1 17.5 47 7.9 NNE 13 22 7 12 1017.3 1017.1 0.0
22/10:30am 29.1 29.1 18.2 51 7.0 NNE 15 22 8 12 1017.5 1017.3 0.0
22/10:00am 28.9 29.3 18.9 54 6.5 N 15 20 8 11 1017.5 1017.3 0.0
22/09:30am 27.6 27.8 18.6 58 5.8 NNE 15 20 8 11 1017.4 1017.2 0.0
22/09:00am 26.3 26.2 18.7 63 4.9 NNE 17 20 9 11 1017.2 1017.0 0.0
22/08:30am 25.5 25.5 18.9 67 4.2 NNE 17 22 9 12 1016.8 1016.6 0.0
22/08:00am 22.9 24.7 18.7 77 2.7 N 7 11 4 6 1016.0 1015.8 0.0
22/07:58am 22.7 24.5 18.7 78 2.5 N 7 9 4 5 1016.0 1015.8 0.0
22/07:47am 22.0 23.9 19.0 83 1.9 N 7 9 4 5 1015.7 1015.5 0.0
22/07:36am 21.3 23.9 18.5 84 1.8 N 2 7 1 4 1015.7 1015.5 0.0
22/07:30am 21.1 24.2 18.7 86 1.5 CALM 0 0 0 0 1015.5 1015.3 0.0
22/07:00am 20.1 21.5 17.3 84 1.7 W 6 7 3 4 1015.1 1014.9 0.0
22/06:33am 20.7 21.8 17.1 80 2.2 SE 7 11 4 6 1014.7 1014.5 0.0
22/06:30am 21.4 23.2 18.8 85 1.6 ESE 7 11 4 6 1014.7 1014.5 0.0
22/06:00am 21.0 22.6 18.2 84 1.7 ESE 7 11 4 6 1014.3 1014.1 0.0
22/05:30am 20.3 22.6 17.7 85 1.6 ENE 2 11 1 6 1014.0 1013.8 0.0
22/05:26am 20.3 22.7 17.1 82 2.0 CALM 0 0 0 0 1013.8 1013.6 0.0
22/05:00am 20.9 23.1 18.3 85 1.6 SSW 4 7 2 4 1013.4 1013.2 0.0
22/04:50am 21.1 22.8 18.5 85 1.6 S 7 13 4 7 1013.2 1013.0 0.0
22/04:48am 21.3 22.8 18.9 86 1.5 SSE 9 13 5 7 1013.2 1013.0 0.0
22/04:30am 20.3 21.4 16.7 80 2.2 WSW 6 7 3 4 1013.1 1012.9 0.0
22/04:00am 21.3 23.1 18.3 83 1.9 N 6 9 3 5 1012.9 1012.7 0.0
22/03:56am 21.4 23.0 18.2 82 2.0 NNE 7 9 4 5 1012.8 1012.6 0.0
22/03:39am 20.8 22.9 18.2 85 1.6 ENE 4 13 2 7 1012.8 1012.6 0.0
22/03:30am 20.5 20.9 17.3 82 2.0 NNE 11 13 6 7 1012.9 1012.7 0.0
22/03:17am 20.2 20.9 17.0 82 1.9 NNE 9 11 5 6 1012.7 1012.5 0.0
22/03:00am 20.3 21.4 16.7 80 2.2 NNE 6 11 3 6 1012.8 1012.6 0.0
22/02:49am 20.7 21.5 17.3 81 2.1 N 9 9 5 5 1012.7 1012.5 0.0
22/02:30am 21.1 23.1 17.9 82 2.0 W 4 9 2 5 1012.8 1012.6 0.0
22/02:00am 21.6 24.4 18.0 80 2.2 CALM 0 2 0 1 1012.9 1012.7 0.0
22/01:58am 21.4 23.7 17.8 80 2.2 S 2 6 1 3 1012.9 1012.7 0.0
22/01:56am 21.3 23.5 17.5 79 2.3 S 2 7 1 4 1012.9 1012.7 0.0
22/01:33am 21.4 22.0 16.8 75 2.8 N 9 9 5 5 1013.0 1012.8 0.0
22/01:30am 21.4 22.2 17.2 77 2.6 NNE 9 11 5 6 1013.0 1012.8 0.0
22/01:00am 22.6 22.8 17.7 74 3.0 NNW 13 15 7 8 1013.1 1012.9 0.0
22/12:56am 22.7 22.8 17.4 72 3.3 NNW 13 15 7 8 1013.1 1012.9 0.0
22/12:30am 21.8 22.1 16.1 70 3.4 N 9 9 5 5 1013.5 1013.3 0.0
22/12:00am 22.5 23.6 17.0 71 3.4 N 7 9 4 5 1013.7 1013.5 0.0
 
Date/Time
CST
Temp
°C
App
Temp
°C
Dew
Point
°C
Rel
Hum
%
Delta-T
°C
Wind Press
QNH
hPa
Press
MSL
hPa
Rain since
9am
mm
Dir  Spd
km/h
Gust
km/h
Spd
kts
Gust
kts
21/11:44pm 22.9 24.9 16.9 69 3.7 N 2 6 1 3 1013.8 1013.6 0.0
21/11:30pm 23.0 23.6 16.8 68 3.8 N 9 11 5 6 1013.9 1013.7 0.0
21/11:00pm 24.2 25.0 17.4 65 4.2 N 9 11 5 6 1014.0 1013.8 0.0
21/10:50pm 23.9 24.7 17.2 66 4.2 N 9 11 5 6 1013.9 1013.7 0.0
21/10:30pm 23.9 25.0 17.2 66 4.2 NW 7 11 4 6 1013.9 1013.7 0.0
21/10:25pm 23.9 24.5 16.9 65 4.3 N 9 13 5 7 1013.9 1013.7 0.0
21/10:00pm 25.2 25.7 17.4 62 4.9 N 11 13 6 7 1013.8 1013.6 0.0
21/09:30pm 25.8 26.3 17.4 59 5.3 N 11 13 6 7 1013.6 1013.4 0.0
21/09:00pm 27.2 28.2 17.7 56 6.0 N 9 13 5 7 1013.4 1013.2 0.0
21/08:30pm 28.1 28.0 17.9 54 6.5 N 15 20 8 11 1013.2 1013.0 0.0
21/08:00pm 28.9 28.2 17.4 49 7.3 N 17 24 9 13 1012.6 1012.4 0.0
21/07:30pm 29.9 28.7 17.0 45 8.1 N 19 26 10 14 1012.2 1012.0 0.0
21/07:00pm 30.9 29.6 16.9 43 8.8 N 19 28 10 15 1011.6 1011.3 0.0
21/06:30pm 32.1 30.6 16.8 40 9.7 N 20 32 11 17 1011.0 1010.7 0.0
21/06:00pm 33.9 32.0 10.5 24 13.6 N 11 13 6 7 1010.6 1010.3 0.0
21/05:30pm 35.8 33.2 9.3 20 15.3 N 13 17 7 9 1010.4 1010.1 0.0
21/05:00pm 36.1 33.7 8.8 19 15.6 NNE 11 19 6 10 1010.3 1010.0 0.0
21/04:30pm 35.9 34.3 8.7 19 15.5 S 7 13 4 7 1010.2 1009.9 0.0
21/04:00pm 35.6 34.1 8.4 19 15.4 NNE 6 11 3 6 1010.4 1010.1 0.0
21/03:30pm 36.7 35.0 7.7 17 16.4 SE 6 11 3 6 1010.6 1010.3 0.0
21/03:00pm 36.6 34.1 8.4 18 16.1 S 11 15 6 8 1010.9 1010.6 0.0
21/02:30pm 36.2 33.9 8.9 19 15.6 S 11 17 6 9 1011.3 1011.0 0.0
21/02:00pm 36.8 34.4 8.6 18 16.1 SW 11 17 6 9 1011.8 1011.5 0.0
21/01:30pm 36.4 34.7 8.3 18 16.0 WNW 7 17 4 9 1012.3 1012.1 0.0
21/01:00pm 35.2 32.9 8.9 20 15.0 SE 11 17 6 9 1012.8 1012.6 0.0
21/12:30pm 34.5 32.2 9.0 21 14.5 SSE 11 26 6 14 1013.2 1013.0 0.0
21/12:00pm 33.6 31.7 9.0 22 13.9 SE 9 17 5 9 1013.7 1013.5 0.0
21/11:30am 33.2 30.8 7.2 20 14.3 SE 9 20 5 11 1014.1 1013.9 0.0
21/11:00am 31.8 29.5 10.5 27 12.3 SE 13 19 7 10 1014.4 1014.2 0.0
21/10:30am 31.0 29.1 11.9 31 11.2 ESE 13 19 7 10 1014.6 1014.4 0.0
21/10:00am 29.8 29.2 12.3 34 10.3 SSE 7 13 4 7 1014.6 1014.4 0.0
21/09:30am 28.9 28.4 11.9 35 9.9 SE 6 9 3 5 1014.6 1014.4 0.0
21/09:00am 27.1 26.9 13.1 42 8.2 NNE 6 9 3 5 1014.5 1014.3 0.0
21/08:30am 26.0 25.7 12.8 44 7.7 NE 6 9 3 5 1014.4 1014.2 0.0
21/08:00am 22.8 23.6 12.4 52 5.9 CALM 0 4 0 2 1014.2 1014.0 0.0
21/07:30am 20.3 21.0 12.3 60 4.5 CALM 0 0 0 0 1013.8 1013.6 0.0
21/07:00am 19.9 20.1 11.9 60 4.5 NNE 2 7 1 4 1013.5 1013.3 0.0
21/06:30am 19.7 19.7 12.5 63 4.0 NE 4 7 2 4 1013.1 1012.9 0.0
21/06:00am 19.1 19.6 12.8 67 3.5 E 2 6 1 3 1012.6 1012.4 0.0
21/05:30am 18.7 19.6 12.9 69 3.3 CALM 0 0 0 0 1012.3 1012.1 0.0
21/05:00am 19.3 19.9 13.0 67 3.6 WSW 2 7 1 4 1012.0 1011.7 0.0
21/04:30am 19.9 20.1 13.1 65 3.9 SSW 4 7 2 4 1011.7 1011.4 0.0
21/04:00am 20.4 20.5 14.5 69 3.4 ESE 7 9 4 5 1011.7 1011.4 0.0
21/03:30am 20.0 20.0 13.5 66 3.7 SSW 6 7 3 4 1011.9 1011.6 0.0
21/03:00am 19.8 20.8 13.3 66 3.7 CALM 0 6 0 3 1012.0 1011.7 0.0
21/02:30am 20.6 21.7 13.6 64 4.0 CALM 0 0 0 0 1012.1 1011.8 0.0
21/02:00am 20.7 20.2 12.1 58 4.8 N 6 9 3 5 1012.1 1011.8 0.0
21/01:30am 21.7 21.6 13.3 59 4.8 NE 6 7 3 4 1012.4 1012.2 0.0
21/01:00am 22.5 22.4 13.3 56 5.3 NNE 6 11 3 6 1012.7 1012.5 0.0
21/12:30am 21.7 21.4 12.8 57 5.1 N 6 7 3 4 1013.0 1012.8 0.0
21/12:00am 22.1 21.6 12.6 55 5.4 N 7 9 4 5 1013.2 1013.0 0.0
 
Date/Time
CST
Temp
°C
App
Temp
°C
Dew
Point
°C
Rel
Hum
%
Delta-T
°C
Wind Press
QNH
hPa
Press
MSL
hPa
Rain since
9am
mm
Dir  Spd
km/h
Gust
km/h
Spd
kts
Gust
kts
20/11:30pm 22.9 22.4 12.8 53 5.8 NE 7 11 4 6 1013.3 1013.1 0.0
20/11:00pm 23.4 23.1 12.7 51 6.1 NNE 6 9 3 5 1013.3 1013.1 0.0
20/10:30pm 24.4 23.4 12.4 47 6.9 NNW 9 11 5 6 1013.3 1013.1 0.0
20/10:00pm 24.6 23.7 12.5 46 7.0 N 9 11 5 6 1013.2 1013.0 0.0
20/09:30pm 26.6 25.2 12.3 41 8.3 N 11 15 6 8 1013.1 1012.9 0.0
20/09:00pm 26.7 24.4 11.6 39 8.6 N 15 19 8 10 1012.4 1012.2 0.0
20/08:30pm 27.7 25.2 10.9 35 9.6 N 15 19 8 10 1011.8 1011.5 0.0
20/08:00pm 28.9 26.3 10.6 32 10.4 N 15 20 8 11 1011.6 1011.3 0.0
20/07:30pm 30.1 26.9 11.1 31 11.0 NNE 19 22 10 12 1011.2 1010.9 0.0
20/07:00pm 31.0 28.0 11.9 31 11.2 N 19 24 10 13 1010.7 1010.4 0.0
20/06:30pm 32.0 28.8 11.2 28 12.1 NNE 19 24 10 13 1010.3 1010.0 0.0
20/06:00pm 32.7 29.2 12.3 28 12.1 N 22 30 12 16 1010.0 1009.7 0.0
20/05:30pm 33.7 30.5 13.2 29 12.4 N 22 32 12 17 1009.7 1009.4 0.0
20/05:00pm 36.3 34.0 7.4 17 16.2 NNE 9 13 5 7 1009.3 1009.0 0.0
20/04:30pm 36.6 33.8 8.4 18 16.1 NNE 13 19 7 10 1009.2 1008.9 0.0
20/04:00pm 35.8 33.6 9.3 20 15.2 N 11 15 6 8 1009.4 1009.1 0.0

Other formats

Comma delimited format used in spreadsheet applications
http://www.bom.gov.au/fwo/IDD60801/IDD60801.94216.axf

JavaScript Object Notation format (JSON) in row-major order
http://www.bom.gov.au/fwo/IDD60801/IDD60801.94216.json

Data quality

Most of these data are generated automatically and are frequently updated. Quality checks on data are not normally performed. It is possible for incorrect values to appear. Refer to information at About Latest Weather Observations and please check the disclaimer before using these data.